Mesa, Idaho
Current Conditions -  °F | °C
As of 11:51 PM on Monday 20 Oct 2014 (Local Time) from KMYL Reporting Station
Clear Clear  
Wind Chill: 45°   Ceiling: Unl
Heat Index: 45°   Visibility: 10mi
Dew Point: 34°   Wind: 0mph
Humidity: 65%   Direction: NA
Pressure: 29.76"   Gusts: NA
Location:  44.63°N, 116.45°W
Report Text: KMYL 210551Z AUTO 00000KT 10SM CLR 07/01 A2976 RMK AO2 SLP056 T00720011 10178 20072 58012
Loading
Personal Weather Stations






























Interactive Weather Map
Tropical Storm Tracking
New forecast layout! Learn more

10-Day Weather Forecast

Advertisements
Track Severe Weather on mobile